createdAt,value
2024-03-28T00:01:59.255Z,7.70
2024-03-28T00:04:32.966Z,6.20
2024-03-28T00:07:06.355Z,5.40
2024-03-28T00:09:39.524Z,5.30
2024-03-28T00:12:13.342Z,5.50
2024-03-28T00:14:46.100Z,4.60
2024-03-28T00:17:18.995Z,4.70
2024-03-28T00:19:51.917Z,5.70
2024-03-28T00:22:25.344Z,5.70
2024-03-28T00:24:58.131Z,5.40
2024-03-28T00:27:30.877Z,5.10
2024-03-28T00:30:04.278Z,7.50
2024-03-28T00:32:37.042Z,16.20
2024-03-28T00:35:11.856Z,25.80
2024-03-28T00:37:44.655Z,22.70
2024-03-28T00:40:17.938Z,10.30
2024-03-28T00:42:51.037Z,8.20
2024-03-28T00:45:23.842Z,6.20
2024-03-28T00:47:56.720Z,5.50
2024-03-28T00:50:29.532Z,6.50
2024-03-28T00:53:02.346Z,6.70
2024-03-28T00:55:37.037Z,7.30
2024-03-28T00:58:09.984Z,8.30
2024-03-28T01:00:43.253Z,6.60
2024-03-28T01:03:16.667Z,6.20
2024-03-28T01:05:59.266Z,7.80
2024-03-28T01:08:32.008Z,5.40
2024-03-28T01:11:04.958Z,5.50
2024-03-28T01:13:38.906Z,4.70
2024-03-28T01:16:12.574Z,5.50
2024-03-28T01:18:45.592Z,5.10
2024-03-28T01:21:18.623Z,6.20
2024-03-28T01:23:51.522Z,5.30
2024-03-28T01:26:24.900Z,5.90
2024-03-28T01:28:58.218Z,6.10
2024-03-28T01:31:30.975Z,5.40
2024-03-28T01:34:03.943Z,6.30
2024-03-28T01:36:36.791Z,6.50
2024-03-28T01:39:09.572Z,6.40
2024-03-28T01:41:42.653Z,7.10
2024-03-28T01:44:15.986Z,6.80
2024-03-28T01:46:56.352Z,7.00
2024-03-28T01:49:42.744Z,10.20
2024-03-28T01:52:16.567Z,11.10
2024-03-28T01:54:49.839Z,10.60
2024-03-28T01:57:24.355Z,11.20
2024-03-28T01:59:57.525Z,9.30
2024-03-28T02:02:31.484Z,7.10
2024-03-28T02:05:04.190Z,7.60
2024-03-28T02:07:37.413Z,6.50
2024-03-28T02:10:12.476Z,6.90
2024-03-28T02:12:45.569Z,6.90
2024-03-28T02:15:18.437Z,5.90
2024-03-28T02:17:52.071Z,6.10
2024-03-28T02:20:24.994Z,6.60
2024-03-28T02:22:57.787Z,7.30
2024-03-28T02:25:30.771Z,5.60
2024-03-28T02:28:04.332Z,7.50
2024-03-28T02:30:37.562Z,5.90
2024-03-28T02:33:10.326Z,5.80
2024-03-28T02:35:44.158Z,6.10
2024-03-28T02:38:16.783Z,5.60
2024-03-28T02:40:52.270Z,5.10
2024-03-28T02:43:25.596Z,4.90
2024-03-28T02:45:58.542Z,5.70
2024-03-28T02:48:31.439Z,4.70
2024-03-28T02:51:04.207Z,6.10
2024-03-28T02:53:37.177Z,5.70
2024-03-28T02:56:10.913Z,4.80
2024-03-28T02:58:43.792Z,5.10
2024-03-28T03:01:16.577Z,4.10
2024-03-28T03:03:49.280Z,5.30
2024-03-28T03:06:22.089Z,4.90
2024-03-28T03:08:55.086Z,4.60
2024-03-28T03:11:27.985Z,4.40
2024-03-28T03:14:00.773Z,5.20
2024-03-28T03:16:33.566Z,6.20
2024-03-28T03:19:06.370Z,5.60
2024-03-28T03:21:39.230Z,6.10
2024-03-28T03:24:14.571Z,6.20
2024-03-28T03:26:51.840Z,5.40
2024-03-28T03:29:42.501Z,7.30
2024-03-28T03:32:29.436Z,7.50
2024-03-28T03:35:02.082Z,7.70
2024-03-28T03:37:35.492Z,8.60
2024-03-28T03:40:11.367Z,7.80
2024-03-28T03:42:44.575Z,7.30
2024-03-28T03:45:17.418Z,7.00
2024-03-28T03:47:50.292Z,12.40
2024-03-28T03:50:23.095Z,11.80
2024-03-28T03:52:56.273Z,9.50
2024-03-28T03:55:29.205Z,6.70
2024-03-28T03:58:02.439Z,6.60
2024-03-28T04:00:35.549Z,9.50
2024-03-28T04:03:08.698Z,7.70
2024-03-28T04:05:41.676Z,8.30
2024-03-28T04:08:14.845Z,6.30
2024-03-28T04:10:47.835Z,5.10
2024-03-28T04:13:20.777Z,6.10
2024-03-28T04:15:54.027Z,4.90
2024-03-28T04:18:28.071Z,6.20
2024-03-28T04:21:01.463Z,5.90
2024-03-28T04:23:34.534Z,5.90
2024-03-28T04:26:07.457Z,7.10
2024-03-28T04:28:40.673Z,4.90
2024-03-28T04:31:13.506Z,4.00
2024-03-28T04:33:46.353Z,4.20
2024-03-28T04:36:20.608Z,4.10
2024-03-28T04:38:54.275Z,4.80
2024-03-28T04:41:29.881Z,4.00
2024-03-28T04:44:02.614Z,3.80
2024-03-28T04:46:35.468Z,3.60
2024-03-28T04:49:08.262Z,3.80
2024-03-28T04:51:41.039Z,4.20
2024-03-28T04:54:13.738Z,3.90
2024-03-28T04:56:46.855Z,3.40
2024-03-28T04:59:19.765Z,3.40
2024-03-28T05:01:53.536Z,2.50
2024-03-28T05:04:26.510Z,3.60
2024-03-28T05:06:59.803Z,2.30
2024-03-28T05:09:33.186Z,2.30
2024-03-28T05:12:06.587Z,4.50
2024-03-28T05:14:39.695Z,3.40
2024-03-28T05:17:13.143Z,2.10
2024-03-28T05:19:46.185Z,2.40
2024-03-28T05:22:19.165Z,1.60
2024-03-28T05:24:52.029Z,2.30
2024-03-28T05:27:27.502Z,1.60
2024-03-28T05:30:01.764Z,1.90
2024-03-28T05:32:34.926Z,1.20
2024-03-28T05:35:10.082Z,1.80
2024-03-28T05:37:43.002Z,1.60
2024-03-28T05:40:16.123Z,1.50
2024-03-28T05:42:49.293Z,1.40
2024-03-28T05:45:22.307Z,1.50
2024-03-28T05:47:55.409Z,1.30
2024-03-28T05:50:29.016Z,1.20
2024-03-28T05:53:02.258Z,1.80
2024-03-28T05:55:36.820Z,1.30
2024-03-28T05:58:09.948Z,1.20
2024-03-28T06:00:43.125Z,1.60
2024-03-28T06:03:16.492Z,1.80
2024-03-28T06:05:49.583Z,1.40
2024-03-28T06:08:22.711Z,1.70
2024-03-28T06:10:55.968Z,1.40
2024-03-28T06:13:32.670Z,1.60
2024-03-28T06:16:06.898Z,1.90
2024-03-28T06:18:40.338Z,2.80
2024-03-28T06:23:44.418Z,1.70
2024-03-28T06:28:49.498Z,1.40
2024-03-28T06:31:23.627Z,1.60
2024-03-28T06:33:57.376Z,1.70
2024-03-28T06:36:30.257Z,1.60
2024-03-28T06:41:34.334Z,1.70
2024-03-28T06:46:38.295Z,1.70
2024-03-28T06:49:11.270Z,1.90
2024-03-28T06:51:43.918Z,1.60
2024-03-28T06:56:49.221Z,0.70
2024-03-28T06:59:22.313Z,1.40
2024-03-28T07:01:56.121Z,0.90
2024-03-28T07:04:29.106Z,1.20
2024-03-28T07:09:33.303Z,1.70
2024-03-28T07:12:07.362Z,1.70
2024-03-28T07:14:40.237Z,1.20
2024-03-28T07:17:13.270Z,1.30
2024-03-28T07:19:46.805Z,1.80
2024-03-28T07:22:19.906Z,1.00
2024-03-28T07:24:53.005Z,1.00
2024-03-28T07:27:26.021Z,1.30
2024-03-28T07:32:30.201Z,1.10
2024-03-28T07:37:34.044Z,0.80
2024-03-28T07:40:11.110Z,1.10
2024-03-28T07:42:43.855Z,1.30
2024-03-28T07:45:18.271Z,0.90
2024-03-28T07:47:51.302Z,1.00
2024-03-28T07:52:55.309Z,1.00
2024-03-28T07:55:28.198Z,0.70
2024-03-28T07:58:00.899Z,1.00
2024-03-28T08:00:33.848Z,0.80
2024-03-28T08:03:07.262Z,0.50
2024-03-28T08:05:40.832Z,0.70
2024-03-28T08:08:13.576Z,0.70
2024-03-28T08:10:46.311Z,0.40
2024-03-28T08:13:19.268Z,0.60
2024-03-28T08:15:52.120Z,0.80
2024-03-28T08:18:25.394Z,0.40
2024-03-28T08:20:58.792Z,0.40
2024-03-28T08:23:31.824Z,0.80
2024-03-28T08:26:07.363Z,1.10
2024-03-28T08:28:44.711Z,0.90
2024-03-28T08:31:17.577Z,1.30
2024-03-28T08:33:53.349Z,1.60
2024-03-28T08:36:26.274Z,1.00
2024-03-28T08:38:59.743Z,0.80
2024-03-28T08:41:32.441Z,0.90
2024-03-28T08:44:05.459Z,1.10
2024-03-28T08:46:42.268Z,1.60
2024-03-28T08:49:16.090Z,2.00
2024-03-28T08:51:49.977Z,1.60
2024-03-28T08:54:25.458Z,1.40
2024-03-28T08:56:58.555Z,1.50
2024-03-28T08:59:31.377Z,1.40
2024-03-28T09:02:05.935Z,1.40
2024-03-28T09:04:40.407Z,1.30
2024-03-28T09:07:13.334Z,0.90
2024-03-28T09:09:48.799Z,0.90
2024-03-28T09:12:22.978Z,1.50
2024-03-28T09:14:59.112Z,1.00
2024-03-28T09:17:32.349Z,1.50
2024-03-28T09:20:07.023Z,0.80
2024-03-28T09:22:40.064Z,1.20
2024-03-28T09:25:13.945Z,1.70
2024-03-28T09:27:46.816Z,1.20
2024-03-28T09:30:22.291Z,1.20
2024-03-28T09:32:56.281Z,1.10
2024-03-28T09:35:29.289Z,2.30
2024-03-28T09:38:03.400Z,2.20
2024-03-28T09:40:41.734Z,2.60
2024-03-28T09:43:14.893Z,2.20
2024-03-28T09:45:49.710Z,2.10
2024-03-28T09:48:23.042Z,2.30
2024-03-28T09:50:56.856Z,2.40
2024-03-28T09:53:31.812Z,3.00
2024-03-28T09:56:04.897Z,2.30
2024-03-28T09:58:39.924Z,1.90
2024-03-28T10:01:12.989Z,2.00
2024-03-28T10:03:47.989Z,0.90
2024-03-28T10:06:20.714Z,2.50
2024-03-28T10:08:54.939Z,2.90
2024-03-28T10:11:27.868Z,14.60
2024-03-28T10:14:00.600Z,2.10
2024-03-28T10:16:33.362Z,1.70
2024-03-28T10:19:06.447Z,1.90
2024-03-28T10:21:39.784Z,2.20
2024-03-28T10:24:20.994Z,2.30
2024-03-28T10:26:54.688Z,2.60
2024-03-28T10:29:30.828Z,2.20
2024-03-28T10:32:10.009Z,1.90
2024-03-28T10:34:49.769Z,2.10
2024-03-28T10:37:27.195Z,1.30
2024-03-28T10:40:02.744Z,2.10
2024-03-28T10:42:36.731Z,1.80
2024-03-28T10:45:12.072Z,2.50
2024-03-28T10:47:45.099Z,2.60
2024-03-28T10:50:23.747Z,3.00
2024-03-28T10:52:59.483Z,7.00
2024-03-28T10:55:37.892Z,4.00
2024-03-28T10:58:11.833Z,2.10
2024-03-28T11:00:45.433Z,1.40
2024-03-28T11:03:19.446Z,13.60
2024-03-28T11:05:52.858Z,3.00
2024-03-28T11:08:25.860Z,2.30
2024-03-28T11:11:01.088Z,1.70
2024-03-28T11:13:34.084Z,1.90
2024-03-28T11:16:08.859Z,1.20
2024-03-28T11:18:43.814Z,1.40
2024-03-28T11:21:26.814Z,1.20
2024-03-28T11:23:59.707Z,1.80
2024-03-28T11:26:33.224Z,1.60
2024-03-28T11:29:07.129Z,1.50
2024-03-28T11:31:44.183Z,1.20
2024-03-28T11:34:29.293Z,2.00
2024-03-28T11:37:02.139Z,1.40
2024-03-28T11:39:35.696Z,0.90
2024-03-28T11:42:32.420Z,2.10
2024-03-28T11:45:14.504Z,2.50
2024-03-28T11:47:51.989Z,1.80
2024-03-28T11:50:27.966Z,1.90
2024-03-28T11:53:09.588Z,1.80
2024-03-28T11:55:44.539Z,1.50
2024-03-28T11:58:22.193Z,4.90
2024-03-28T12:01:01.686Z,1.50
2024-03-28T12:03:36.200Z,1.80
2024-03-28T12:06:09.834Z,2.00
2024-03-28T12:08:46.204Z,2.00
2024-03-28T12:11:19.943Z,1.50
2024-03-28T12:13:54.165Z,1.80
2024-03-28T12:16:27.200Z,2.30
2024-03-28T12:19:08.466Z,2.00
2024-03-28T12:21:42.106Z,3.30
2024-03-28T12:24:15.782Z,2.90
2024-03-28T12:26:49.327Z,1.50
2024-03-28T12:29:29.820Z,1.40
2024-03-28T12:32:10.144Z,1.60
2024-03-28T12:34:53.298Z,2.80
2024-03-28T12:37:30.001Z,1.30
2024-03-28T12:40:10.686Z,1.50
2024-03-28T12:42:51.375Z,1.60
2024-03-28T12:45:25.718Z,2.00
2024-03-28T12:47:58.824Z,3.00
2024-03-28T12:50:34.049Z,2.00
2024-03-28T12:53:08.165Z,2.20
2024-03-28T12:55:42.246Z,1.40
2024-03-28T12:58:16.579Z,2.80
2024-03-28T13:00:49.389Z,2.20
2024-03-28T13:03:22.932Z,1.90
2024-03-28T13:05:57.631Z,2.50
2024-03-28T13:08:30.892Z,2.10
2024-03-28T13:11:04.786Z,2.10
2024-03-28T13:13:39.436Z,1.30
2024-03-28T13:16:12.684Z,3.00
2024-03-28T13:18:49.390Z,2.10
2024-03-28T13:21:25.554Z,1.80
2024-03-28T13:24:00.179Z,2.20
2024-03-28T13:29:16.668Z,2.70
2024-03-28T13:31:50.534Z,2.90
2024-03-28T13:34:24.987Z,1.70
2024-03-28T13:36:59.385Z,1.30
2024-03-28T13:39:32.592Z,1.70
2024-03-28T13:42:06.326Z,2.90
2024-03-28T13:44:39.427Z,3.00
2024-03-28T13:47:13.502Z,10.00
2024-03-28T13:49:46.850Z,4.20
2024-03-28T13:52:23.968Z,2.70
2024-03-28T13:54:58.229Z,1.70
2024-03-28T13:57:32.413Z,1.50
2024-03-28T14:00:08.573Z,1.50
2024-03-28T14:02:41.954Z,0.90
2024-03-28T14:05:15.123Z,1.50
2024-03-28T14:07:48.479Z,1.70
2024-03-28T14:10:22.869Z,2.10
2024-03-28T14:12:56.276Z,2.40
2024-03-28T14:15:31.233Z,2.30
2024-03-28T14:18:05.043Z,2.40
2024-03-28T14:20:41.145Z,2.10
2024-03-28T14:23:18.231Z,1.40
2024-03-28T14:25:52.208Z,1.50
2024-03-28T14:28:25.600Z,2.90
2024-03-28T14:30:58.736Z,2.50
2024-03-28T14:33:34.335Z,2.20
2024-03-28T14:36:09.663Z,3.80
2024-03-28T14:38:43.530Z,2.10
2024-03-28T14:41:17.531Z,1.70
2024-03-28T14:43:50.924Z,2.90
2024-03-28T14:46:28.489Z,2.00
2024-03-28T14:49:01.926Z,1.60
2024-03-28T14:51:34.844Z,1.70
2024-03-28T14:54:08.472Z,3.20
2024-03-28T14:56:42.295Z,4.40
2024-03-28T14:59:15.230Z,3.70
2024-03-28T15:01:48.076Z,3.40
2024-03-28T15:04:26.902Z,4.80
2024-03-28T15:07:03.336Z,3.60
2024-03-28T15:09:37.013Z,4.00
2024-03-28T15:12:11.084Z,4.80
2024-03-28T15:14:44.473Z,4.20
2024-03-28T15:17:18.455Z,4.30
2024-03-28T15:19:51.519Z,4.80
2024-03-28T15:22:24.760Z,4.00
2024-03-28T15:25:00.830Z,5.20
2024-03-28T15:27:34.204Z,5.10
2024-03-28T15:30:08.325Z,4.40
2024-03-28T15:32:41.281Z,5.40
2024-03-28T15:35:14.765Z,8.80
2024-03-28T15:37:48.126Z,6.60
2024-03-28T15:40:21.794Z,6.40
2024-03-28T15:42:55.491Z,6.20
2024-03-28T15:45:28.626Z,6.30
2024-03-28T15:48:01.772Z,6.70
2024-03-28T15:50:36.882Z,6.00
2024-03-28T15:53:09.726Z,7.10
2024-03-28T15:55:45.403Z,7.40
2024-03-28T15:58:19.825Z,10.30
2024-03-28T16:00:52.810Z,9.70
2024-03-28T16:03:25.975Z,6.30
2024-03-28T16:05:58.958Z,8.30
2024-03-28T16:08:32.177Z,6.70
2024-03-28T16:11:05.140Z,8.10
2024-03-28T16:13:38.165Z,7.30
2024-03-28T16:16:11.573Z,8.20
2024-03-28T16:18:45.228Z,7.60
2024-03-28T16:21:18.087Z,8.90
2024-03-28T16:23:51.484Z,8.00
2024-03-28T16:26:24.619Z,12.00
2024-03-28T16:29:06.724Z,15.70
2024-03-28T16:31:43.831Z,10.00
2024-03-28T16:34:16.854Z,10.30
2024-03-28T16:36:49.738Z,10.50
2024-03-28T16:39:24.783Z,10.50
2024-03-28T16:41:57.767Z,11.20
2024-03-28T16:44:31.013Z,12.20
2024-03-28T16:47:09.572Z,9.70
2024-03-28T16:49:42.651Z,9.10
2024-03-28T16:52:15.927Z,13.20
2024-03-28T16:54:49.037Z,14.40
2024-03-28T16:57:22.104Z,14.20
2024-03-28T16:59:57.876Z,12.70
2024-03-28T17:02:31.352Z,12.20
2024-03-28T17:05:04.347Z,13.80
2024-03-28T17:07:40.666Z,16.60
2024-03-28T17:10:14.929Z,18.70
2024-03-28T17:12:48.024Z,16.60
2024-03-28T17:15:21.095Z,19.10
2024-03-28T17:17:54.584Z,20.00
2024-03-28T17:20:27.518Z,13.70
2024-03-28T17:23:00.441Z,14.00
2024-03-28T17:25:34.757Z,15.70
2024-03-28T17:28:08.518Z,15.80
2024-03-28T17:30:43.707Z,16.40
2024-03-28T17:33:17.677Z,17.60
2024-03-28T17:35:58.697Z,16.90
2024-03-28T17:38:31.683Z,15.40
2024-03-28T17:41:04.902Z,15.50
2024-03-28T17:43:37.908Z,24.70
2024-03-28T17:46:11.037Z,30.90
2024-03-28T17:48:43.756Z,36.80
2024-03-28T17:51:16.597Z,32.00
2024-03-28T17:53:50.604Z,37.60
2024-03-28T17:56:23.347Z,35.00
2024-03-28T17:58:57.219Z,36.40
2024-03-28T18:01:32.875Z,33.40
2024-03-28T18:04:10.622Z,27.50
2024-03-28T18:06:43.568Z,30.40
2024-03-28T18:09:20.803Z,25.00
2024-03-28T18:11:53.660Z,21.70
2024-03-28T18:14:26.977Z,23.10
2024-03-28T18:17:00.278Z,24.60
2024-03-28T18:19:33.700Z,22.70
2024-03-28T18:22:07.095Z,24.20
2024-03-28T18:24:40.763Z,25.60
2024-03-28T18:27:13.574Z,24.70
2024-03-28T18:29:46.548Z,23.80
2024-03-28T18:32:19.827Z,20.40
2024-03-28T18:34:53.029Z,18.10
2024-03-28T18:37:26.150Z,21.20
2024-03-28T18:39:59.246Z,19.30
2024-03-28T18:42:32.546Z,21.20
2024-03-28T18:45:05.948Z,18.90
2024-03-28T18:47:38.982Z,20.40
2024-03-28T18:50:13.023Z,20.20
2024-03-28T18:52:47.215Z,21.90
2024-03-28T18:55:20.574Z,21.20
2024-03-28T18:57:53.820Z,20.00
2024-03-28T19:00:27.547Z,17.90
2024-03-28T19:03:01.469Z,17.10
2024-03-28T19:05:39.231Z,16.90
2024-03-28T19:08:13.282Z,16.30
2024-03-28T19:10:48.052Z,20.90
2024-03-28T19:13:22.299Z,19.70
2024-03-28T19:15:58.060Z,19.30
2024-03-28T19:18:31.888Z,20.30
2024-03-28T19:21:05.691Z,18.40
2024-03-28T19:23:38.970Z,17.80
2024-03-28T19:26:14.289Z,20.00
2024-03-28T19:28:48.228Z,21.40
2024-03-28T19:31:22.994Z,20.70
2024-03-28T19:33:58.035Z,20.90
2024-03-28T19:36:35.223Z,22.60
2024-03-28T19:39:11.652Z,19.10
2024-03-28T19:41:44.763Z,19.00
2024-03-28T19:44:17.669Z,19.40
2024-03-28T19:46:54.939Z,19.20
2024-03-28T19:49:27.857Z,18.80
2024-03-28T19:52:01.051Z,18.10
2024-03-28T19:54:37.889Z,19.80
2024-03-28T19:57:11.077Z,21.60
2024-03-28T19:59:43.966Z,24.80
2024-03-28T20:02:16.867Z,25.60
2024-03-28T20:04:58.808Z,26.70
2024-03-28T20:07:32.911Z,24.10
2024-03-28T20:10:08.003Z,21.70
2024-03-28T20:12:44.051Z,22.00
2024-03-28T20:15:16.908Z,20.80
2024-03-28T20:17:49.898Z,22.80
2024-03-28T20:20:23.383Z,22.40
2024-03-28T20:22:56.355Z,22.40
2024-03-28T20:25:30.229Z,24.10
2024-03-28T20:28:04.608Z,24.20
2024-03-28T20:30:38.166Z,21.10
2024-03-28T20:33:12.036Z,22.20
2024-03-28T20:35:47.690Z,26.10
2024-03-28T20:38:20.512Z,22.20
2024-03-28T20:40:57.326Z,21.40
2024-03-28T20:43:30.246Z,22.50
2024-03-28T20:46:07.883Z,22.20
2024-03-28T20:48:40.727Z,19.80
2024-03-28T20:51:20.026Z,20.60
2024-03-28T20:53:53.217Z,20.90
2024-03-28T20:56:25.966Z,19.60
2024-03-28T20:58:59.653Z,19.90
2024-03-28T21:01:33.172Z,19.40
2024-03-28T21:04:08.897Z,19.70
2024-03-28T21:07:07.686Z,20.80
2024-03-28T21:10:07.705Z,17.70
2024-03-28T21:12:40.824Z,16.90
2024-03-28T21:15:13.583Z,19.50
2024-03-28T21:17:46.377Z,19.80
2024-03-28T21:20:20.041Z,18.00
2024-03-28T21:22:53.768Z,18.70
2024-03-28T21:25:26.533Z,18.40
2024-03-28T21:28:00.899Z,18.20
2024-03-28T21:30:34.866Z,17.60
2024-03-28T21:33:08.317Z,16.90
2024-03-28T21:35:41.710Z,15.70
2024-03-28T21:38:14.581Z,17.10
2024-03-28T21:40:57.000Z,14.50
2024-03-28T21:43:30.331Z,15.80
2024-03-28T21:46:04.179Z,16.50
2024-03-28T21:48:39.061Z,17.30
2024-03-28T21:51:12.075Z,17.20
2024-03-28T21:53:45.089Z,16.70
2024-03-28T21:56:20.981Z,18.10
2024-03-28T21:58:53.663Z,16.20
2024-03-28T22:01:26.663Z,19.10
2024-03-28T22:03:59.454Z,19.70
2024-03-28T22:06:35.345Z,16.10
2024-03-28T22:09:10.068Z,18.50
2024-03-28T22:11:43.718Z,17.50
2024-03-28T22:14:16.647Z,15.20
2024-03-28T22:16:54.479Z,14.80
2024-03-28T22:19:33.889Z,22.00
2024-03-28T22:22:07.178Z,30.10
2024-03-28T22:24:40.285Z,21.10
2024-03-28T22:27:15.292Z,19.30
2024-03-28T22:29:47.982Z,17.40
2024-03-28T22:32:21.062Z,16.00
2024-03-28T22:34:55.688Z,15.80
2024-03-28T22:37:28.823Z,14.70
2024-03-28T22:40:02.146Z,14.50
2024-03-28T22:42:37.102Z,13.20
2024-03-28T22:45:11.834Z,12.30
2024-03-28T22:47:45.140Z,13.20
2024-03-28T22:50:18.653Z,15.30
2024-03-28T22:52:51.562Z,15.80
2024-03-28T22:55:24.904Z,17.50
2024-03-28T22:57:57.842Z,16.80
2024-03-28T23:00:34.650Z,19.30
2024-03-28T23:03:08.410Z,19.30
2024-03-28T23:05:41.338Z,16.40
2024-03-28T23:08:14.711Z,16.80
2024-03-28T23:10:53.549Z,14.20
2024-03-28T23:13:26.799Z,12.50
2024-03-28T23:16:00.059Z,11.60
2024-03-28T23:18:33.312Z,11.30
2024-03-28T23:21:06.936Z,12.50
2024-03-28T23:23:41.416Z,13.00
2024-03-28T23:26:14.413Z,11.20
2024-03-28T23:28:48.668Z,13.60
2024-03-28T23:31:21.378Z,13.40
2024-03-28T23:33:54.824Z,13.60
2024-03-28T23:36:28.222Z,12.00
2024-03-28T23:39:01.642Z,10.80
2024-03-28T23:41:35.124Z,11.60
2024-03-28T23:44:08.630Z,11.10
2024-03-28T23:46:41.395Z,11.50
2024-03-28T23:49:15.273Z,12.00
2024-03-28T23:51:48.128Z,11.10
2024-03-28T23:54:21.887Z,11.20
2024-03-28T23:56:54.546Z,13.10
2024-03-28T23:59:27.900Z,11.70
